sensor_id;sensor_type;location;lat;lon;timestamp;temperature;humidity
23637;DHT22;11995;50.842;4.456;2023-07-08T00:01:04;20.20;99.90
23637;DHT22;11995;50.842;4.456;2023-07-08T00:03:30;20.20;99.90
23637;DHT22;11995;50.842;4.456;2023-07-08T00:05:57;20.20;99.90
23637;DHT22;11995;50.842;4.456;2023-07-08T00:08:24;20.30;99.90
23637;DHT22;11995;50.842;4.456;2023-07-08T00:10:50;20.30;99.90
23637;DHT22;11995;50.842;4.456;2023-07-08T00:13:17;20.30;99.90
23637;DHT22;11995;50.842;4.456;2023-07-08T00:15:44;20.30;99.90
23637;DHT22;11995;50.842;4.456;2023-07-08T00:18:16;20.20;99.90
23637;DHT22;11995;50.842;4.456;2023-07-08T00:23:11;20.20;99.90
23637;DHT22;11995;50.842;4.456;2023-07-08T00:25:38;20.10;99.90
23637;DHT22;11995;50.842;4.456;2023-07-08T00:28:09;20.00;99.90
23637;DHT22;11995;50.842;4.456;2023-07-08T00:30:36;20.00;99.90
23637;DHT22;11995;50.842;4.456;2023-07-08T00:33:03;20.00;99.90
23637;DHT22;11995;50.842;4.456;2023-07-08T00:35:33;20.00;99.90
23637;DHT22;11995;50.842;4.456;2023-07-08T00:38:01;19.90;99.90
23637;DHT22;11995;50.842;4.456;2023-07-08T00:40:29;19.90;99.90
23637;DHT22;11995;50.842;4.456;2023-07-08T00:42:56;19.90;99.90
23637;DHT22;11995;50.842;4.456;2023-07-08T00:45:29;20.00;99.90
23637;DHT22;11995;50.842;4.456;2023-07-08T00:47:53;19.90;99.90
23637;DHT22;11995;50.842;4.456;2023-07-08T00:50:20;19.80;99.90
23637;DHT22;11995;50.842;4.456;2023-07-08T00:52:46;19.80;99.90
23637;DHT22;11995;50.842;4.456;2023-07-08T00:55:13;19.80;99.90
23637;DHT22;11995;50.842;4.456;2023-07-08T00:57:41;19.80;99.90
23637;DHT22;11995;50.842;4.456;2023-07-08T01:00:10;19.70;99.90
23637;DHT22;11995;50.842;4.456;2023-07-08T01:02:48;19.70;99.90
23637;DHT22;11995;50.842;4.456;2023-07-08T01:05:17;19.60;99.90
23637;DHT22;11995;50.842;4.456;2023-07-08T01:07:45;19.50;99.90
23637;DHT22;11995;50.842;4.456;2023-07-08T01:10:14;19.40;99.90
23637;DHT22;11995;50.842;4.456;2023-07-08T01:12:43;19.40;99.90
23637;DHT22;11995;50.842;4.456;2023-07-08T01:15:09;19.40;99.90
23637;DHT22;11995;50.842;4.456;2023-07-08T01:17:36;19.50;99.90
23637;DHT22;11995;50.842;4.456;2023-07-08T01:20:04;19.40;99.90
23637;DHT22;11995;50.842;4.456;2023-07-08T01:22:36;19.30;99.90
23637;DHT22;11995;50.842;4.456;2023-07-08T01:25:03;19.40;99.90
23637;DHT22;11995;50.842;4.456;2023-07-08T01:27:31;19.30;99.90
23637;DHT22;11995;50.842;4.456;2023-07-08T01:29:59;19.40;99.90
23637;DHT22;11995;50.842;4.456;2023-07-08T01:32:26;19.40;99.90
23637;DHT22;11995;50.842;4.456;2023-07-08T01:34:54;19.30;99.90
23637;DHT22;11995;50.842;4.456;2023-07-08T01:37:37;19.40;99.90
23637;DHT22;11995;50.842;4.456;2023-07-08T01:39:56;19.40;99.90
23637;DHT22;11995;50.842;4.456;2023-07-08T01:42:23;19.30;99.90
23637;DHT22;11995;50.842;4.456;2023-07-08T01:44:50;19.50;99.90
23637;DHT22;11995;50.842;4.456;2023-07-08T01:47:19;19.40;99.90
23637;DHT22;11995;50.842;4.456;2023-07-08T01:49:46;19.30;99.90
23637;DHT22;11995;50.842;4.456;2023-07-08T01:52:14;19.30;99.90
23637;DHT22;11995;50.842;4.456;2023-07-08T01:54:42;19.10;99.90
23637;DHT22;11995;50.842;4.456;2023-07-08T01:57:09;19.10;99.90
23637;DHT22;11995;50.842;4.456;2023-07-08T01:59:35;19.10;99.90
23637;DHT22;11995;50.842;4.456;2023-07-08T02:02:02;19.10;99.90
23637;DHT22;11995;50.842;4.456;2023-07-08T02:04:29;19.10;99.90
23637;DHT22;11995;50.842;4.456;2023-07-08T02:06:57;19.10;99.90
23637;DHT22;11995;50.842;4.456;2023-07-08T02:09:24;19.00;99.90
23637;DHT22;11995;50.842;4.456;2023-07-08T02:11:52;19.10;99.90
23637;DHT22;11995;50.842;4.456;2023-07-08T02:14:19;19.10;99.90
23637;DHT22;11995;50.842;4.456;2023-07-08T02:16:46;19.10;99.90
23637;DHT22;11995;50.842;4.456;2023-07-08T02:19:13;19.20;99.90
23637;DHT22;11995;50.842;4.456;2023-07-08T02:21:39;19.20;99.90
23637;DHT22;11995;50.842;4.456;2023-07-08T02:24:07;19.20;99.90
23637;DHT22;11995;50.842;4.456;2023-07-08T02:26:34;19.10;99.90
23637;DHT22;11995;50.842;4.456;2023-07-08T02:29:00;19.00;99.90
23637;DHT22;11995;50.842;4.456;2023-07-08T02:31:28;18.90;99.90
23637;DHT22;11995;50.842;4.456;2023-07-08T02:33:55;18.80;99.90
23637;DHT22;11995;50.842;4.456;2023-07-08T02:36:22;18.70;99.90
23637;DHT22;11995;50.842;4.456;2023-07-08T02:38:48;18.60;99.90
23637;DHT22;11995;50.842;4.456;2023-07-08T02:41:16;18.60;99.90
23637;DHT22;11995;50.842;4.456;2023-07-08T02:43:43;18.70;99.90
23637;DHT22;11995;50.842;4.456;2023-07-08T02:46:09;18.80;99.90
23637;DHT22;11995;50.842;4.456;2023-07-08T02:48:36;18.80;99.90
23637;DHT22;11995;50.842;4.456;2023-07-08T02:51:03;18.90;99.90
23637;DHT22;11995;50.842;4.456;2023-07-08T02:53:31;18.90;99.90
23637;DHT22;11995;50.842;4.456;2023-07-08T02:55:57;19.00;99.90
23637;DHT22;11995;50.842;4.456;2023-07-08T02:58:24;18.90;99.90
23637;DHT22;11995;50.842;4.456;2023-07-08T03:00:56;19.00;99.90
23637;DHT22;11995;50.842;4.456;2023-07-08T03:03:19;19.00;99.90
23637;DHT22;11995;50.842;4.456;2023-07-08T03:06:00;18.90;99.90
23637;DHT22;11995;50.842;4.456;2023-07-08T03:08:27;18.80;99.90
23637;DHT22;11995;50.842;4.456;2023-07-08T03:10:55;18.70;99.90
23637;DHT22;11995;50.842;4.456;2023-07-08T03:13:22;18.60;99.90
23637;DHT22;11995;50.842;4.456;2023-07-08T03:15:49;18.70;99.90
23637;DHT22;11995;50.842;4.456;2023-07-08T03:18:16;18.80;99.90
23637;DHT22;11995;50.842;4.456;2023-07-08T03:20:43;18.80;99.90
23637;DHT22;11995;50.842;4.456;2023-07-08T03:23:13;18.90;99.90
23637;DHT22;11995;50.842;4.456;2023-07-08T03:25:39;19.00;99.90
23637;DHT22;11995;50.842;4.456;2023-07-08T03:28:06;19.00;99.90
23637;DHT22;11995;50.842;4.456;2023-07-08T03:30:35;19.00;99.90
23637;DHT22;11995;50.842;4.456;2023-07-08T03:33:02;19.00;99.90
23637;DHT22;11995;50.842;4.456;2023-07-08T03:35:28;18.90;99.90
23637;DHT22;11995;50.842;4.456;2023-07-08T03:37:55;19.00;99.90
23637;DHT22;11995;50.842;4.456;2023-07-08T03:40:22;19.00;99.90
23637;DHT22;11995;50.842;4.456;2023-07-08T03:42:49;19.00;99.90
23637;DHT22;11995;50.842;4.456;2023-07-08T03:45:16;19.00;99.90
23637;DHT22;11995;50.842;4.456;2023-07-08T03:47:42;18.90;99.90
23637;DHT22;11995;50.842;4.456;2023-07-08T03:50:16;19.00;99.90
23637;DHT22;11995;50.842;4.456;2023-07-08T03:52:38;19.00;99.90
23637;DHT22;11995;50.842;4.456;2023-07-08T03:55:04;19.00;99.90
23637;DHT22;11995;50.842;4.456;2023-07-08T03:57:31;18.90;99.90
23637;DHT22;11995;50.842;4.456;2023-07-08T03:59:58;18.80;99.90
23637;DHT22;11995;50.842;4.456;2023-07-08T04:02:25;18.70;99.90
23637;DHT22;11995;50.842;4.456;2023-07-08T04:04:52;18.60;99.90
23637;DHT22;11995;50.842;4.456;2023-07-08T04:07:19;18.60;99.90
23637;DHT22;11995;50.842;4.456;2023-07-08T04:09:46;18.70;99.90
23637;DHT22;11995;50.842;4.456;2023-07-08T04:12:14;18.70;99.90
23637;DHT22;11995;50.842;4.456;2023-07-08T04:14:41;18.70;99.90
23637;DHT22;11995;50.842;4.456;2023-07-08T04:17:08;18.70;99.90
23637;DHT22;11995;50.842;4.456;2023-07-08T04:19:35;18.60;99.90
23637;DHT22;11995;50.842;4.456;2023-07-08T04:22:02;18.70;99.90
23637;DHT22;11995;50.842;4.456;2023-07-08T04:24:29;18.80;99.90
23637;DHT22;11995;50.842;4.456;2023-07-08T04:26:56;18.90;99.90
23637;DHT22;11995;50.842;4.456;2023-07-08T04:29:23;18.80;99.90
23637;DHT22;11995;50.842;4.456;2023-07-08T04:31:50;18.90;99.90
23637;DHT22;11995;50.842;4.456;2023-07-08T04:34:17;18.90;99.90
23637;DHT22;11995;50.842;4.456;2023-07-08T04:36:46;19.00;99.90
23637;DHT22;11995;50.842;4.456;2023-07-08T04:39:13;19.10;99.90
23637;DHT22;11995;50.842;4.456;2023-07-08T04:41:40;19.10;99.90
23637;DHT22;11995;50.842;4.456;2023-07-08T04:44:07;19.00;99.90
23637;DHT22;11995;50.842;4.456;2023-07-08T04:46:35;19.10;99.90
23637;DHT22;11995;50.842;4.456;2023-07-08T04:49:05;19.00;99.90
23637;DHT22;11995;50.842;4.456;2023-07-08T04:51:32;19.10;99.90
23637;DHT22;11995;50.842;4.456;2023-07-08T04:53:59;19.20;99.90
23637;DHT22;11995;50.842;4.456;2023-07-08T04:56:34;19.20;99.90
23637;DHT22;11995;50.842;4.456;2023-07-08T04:58:54;19.30;99.90
23637;DHT22;11995;50.842;4.456;2023-07-08T05:01:21;19.30;99.90
23637;DHT22;11995;50.842;4.456;2023-07-08T05:03:48;19.30;99.90
23637;DHT22;11995;50.842;4.456;2023-07-08T05:06:15;19.40;99.90
23637;DHT22;11995;50.842;4.456;2023-07-08T05:08:42;19.50;99.90
23637;DHT22;11995;50.842;4.456;2023-07-08T05:11:08;19.60;99.90
23637;DHT22;11995;50.842;4.456;2023-07-08T05:13:35;19.70;99.90
23637;DHT22;11995;50.842;4.456;2023-07-08T05:16:02;19.80;99.90
23637;DHT22;11995;50.842;4.456;2023-07-08T05:18:29;20.00;99.90
23637;DHT22;11995;50.842;4.456;2023-07-08T05:20:56;20.20;99.90
23637;DHT22;11995;50.842;4.456;2023-07-08T05:23:23;20.60;99.90
23637;DHT22;11995;50.842;4.456;2023-07-08T05:25:50;20.80;99.90
23637;DHT22;11995;50.842;4.456;2023-07-08T05:28:17;20.90;99.90
23637;DHT22;11995;50.842;4.456;2023-07-08T05:30:44;20.90;99.90
23637;DHT22;11995;50.842;4.456;2023-07-08T05:33:10;20.90;99.90
23637;DHT22;11995;50.842;4.456;2023-07-08T05:35:37;20.90;99.90
23637;DHT22;11995;50.842;4.456;2023-07-08T05:38:04;20.90;99.90
23637;DHT22;11995;50.842;4.456;2023-07-08T05:40:31;21.00;99.90
23637;DHT22;11995;50.842;4.456;2023-07-08T05:42:58;21.10;99.90
23637;DHT22;11995;50.842;4.456;2023-07-08T05:45:24;21.20;99.90
23637;DHT22;11995;50.842;4.456;2023-07-08T05:47:51;21.20;99.90
23637;DHT22;11995;50.842;4.456;2023-07-08T05:50:18;21.30;99.90
23637;DHT22;11995;50.842;4.456;2023-07-08T05:52:45;21.30;99.90
23637;DHT22;11995;50.842;4.456;2023-07-08T05:55:12;21.40;99.90
23637;DHT22;11995;50.842;4.456;2023-07-08T05:57:38;21.40;99.90
23637;DHT22;11995;50.842;4.456;2023-07-08T06:00:05;21.60;99.90
23637;DHT22;11995;50.842;4.456;2023-07-08T06:02:33;21.70;99.90
23637;DHT22;11995;50.842;4.456;2023-07-08T06:04:59;21.70;99.90
23637;DHT22;11995;50.842;4.456;2023-07-08T06:07:26;21.90;99.90
23637;DHT22;11995;50.842;4.456;2023-07-08T06:09:59;22.00;99.90
23637;DHT22;11995;50.842;4.456;2023-07-08T06:12:26;22.10;99.90
23637;DHT22;11995;50.842;4.456;2023-07-08T06:14:53;22.20;99.90
23637;DHT22;11995;50.842;4.456;2023-07-08T06:17:20;22.30;99.90
23637;DHT22;11995;50.842;4.456;2023-07-08T06:19:47;22.40;99.90
23637;DHT22;11995;50.842;4.456;2023-07-08T06:22:14;22.50;99.90
23637;DHT22;11995;50.842;4.456;2023-07-08T06:24:41;22.60;99.90
23637;DHT22;11995;50.842;4.456;2023-07-08T06:27:08;22.60;99.90
23637;DHT22;11995;50.842;4.456;2023-07-08T06:29:34;22.60;99.90
23637;DHT22;11995;50.842;4.456;2023-07-08T06:32:01;22.70;99.90
23637;DHT22;11995;50.842;4.456;2023-07-08T06:34:29;23.00;99.90
23637;DHT22;11995;50.842;4.456;2023-07-08T06:36:56;23.10;99.90
23637;DHT22;11995;50.842;4.456;2023-07-08T06:39:23;23.30;99.90
23637;DHT22;11995;50.842;4.456;2023-07-08T06:41:49;23.40;99.90
23637;DHT22;11995;50.842;4.456;2023-07-08T06:44:16;23.40;99.90
23637;DHT22;11995;50.842;4.456;2023-07-08T06:46:43;23.50;99.90
23637;DHT22;11995;50.842;4.456;2023-07-08T06:49:10;23.70;99.90
23637;DHT22;11995;50.842;4.456;2023-07-08T06:51:37;24.30;99.90
23637;DHT22;11995;50.842;4.456;2023-07-08T06:54:06;24.70;99.90
23637;DHT22;11995;50.842;4.456;2023-07-08T06:56:35;25.20;99.90
23637;DHT22;11995;50.842;4.456;2023-07-08T06:59:02;25.50;99.90
23637;DHT22;11995;50.842;4.456;2023-07-08T07:01:29;25.80;99.90
23637;DHT22;11995;50.842;4.456;2023-07-08T07:03:56;26.30;99.90
23637;DHT22;11995;50.842;4.456;2023-07-08T07:06:23;26.40;99.90
23637;DHT22;11995;50.842;4.456;2023-07-08T07:08:49;26.80;99.90
23637;DHT22;11995;50.842;4.456;2023-07-08T07:11:16;26.90;99.90
23637;DHT22;11995;50.842;4.456;2023-07-08T07:13:45;27.20;99.90
23637;DHT22;11995;50.842;4.456;2023-07-08T07:16:12;27.40;99.90
23637;DHT22;11995;50.842;4.456;2023-07-08T07:18:39;27.60;99.90
23637;DHT22;11995;50.842;4.456;2023-07-08T07:21:06;27.70;99.90
23637;DHT22;11995;50.842;4.456;2023-07-08T07:23:33;27.80;99.90
23637;DHT22;11995;50.842;4.456;2023-07-08T07:26:00;27.90;99.90
23637;DHT22;11995;50.842;4.456;2023-07-08T07:28:28;27.80;99.90
23637;DHT22;11995;50.842;4.456;2023-07-08T07:30:56;27.90;99.90
23637;DHT22;11995;50.842;4.456;2023-07-08T07:33:23;28.10;99.90
23637;DHT22;11995;50.842;4.456;2023-07-08T07:35:50;27.80;99.90
23637;DHT22;11995;50.842;4.456;2023-07-08T07:38:17;27.80;99.90
23637;DHT22;11995;50.842;4.456;2023-07-08T07:40:45;28.10;99.90
23637;DHT22;11995;50.842;4.456;2023-07-08T07:43:12;28.20;99.90
23637;DHT22;11995;50.842;4.456;2023-07-08T07:45:38;28.30;99.70
23637;DHT22;11995;50.842;4.456;2023-07-08T07:48:05;28.40;99.10
23637;DHT22;11995;50.842;4.456;2023-07-08T07:50:33;28.40;99.50
23637;DHT22;11995;50.842;4.456;2023-07-08T07:53:00;28.40;99.90
23637;DHT22;11995;50.842;4.456;2023-07-08T07:55:28;28.50;99.90
23637;DHT22;11995;50.842;4.456;2023-07-08T07:57:55;28.50;99.90
23637;DHT22;11995;50.842;4.456;2023-07-08T08:00:21;28.50;99.90
23637;DHT22;11995;50.842;4.456;2023-07-08T08:02:48;28.70;99.70
23637;DHT22;11995;50.842;4.456;2023-07-08T08:05:15;28.70;99.40
23637;DHT22;11995;50.842;4.456;2023-07-08T08:07:42;28.70;99.40
23637;DHT22;11995;50.842;4.456;2023-07-08T08:10:09;28.90;98.60
23637;DHT22;11995;50.842;4.456;2023-07-08T08:12:36;28.90;97.10
23637;DHT22;11995;50.842;4.456;2023-07-08T08:15:03;28.70;96.50
23637;DHT22;11995;50.842;4.456;2023-07-08T08:17:29;28.80;96.40
23637;DHT22;11995;50.842;4.456;2023-07-08T08:19:56;28.70;96.40
23637;DHT22;11995;50.842;4.456;2023-07-08T08:22:23;28.70;95.50
23637;DHT22;11995;50.842;4.456;2023-07-08T08:24:50;28.90;94.40
23637;DHT22;11995;50.842;4.456;2023-07-08T08:27:17;28.90;94.80
23637;DHT22;11995;50.842;4.456;2023-07-08T08:29:44;29.00;94.80
23637;DHT22;11995;50.842;4.456;2023-07-08T08:32:10;29.00;95.30
23637;DHT22;11995;50.842;4.456;2023-07-08T08:34:37;29.10;95.20
23637;DHT22;11995;50.842;4.456;2023-07-08T08:37:04;29.00;95.70
23637;DHT22;11995;50.842;4.456;2023-07-08T08:39:31;29.20;95.50
23637;DHT22;11995;50.842;4.456;2023-07-08T08:41:58;29.20;95.50
23637;DHT22;11995;50.842;4.456;2023-07-08T08:44:27;29.20;95.70
23637;DHT22;11995;50.842;4.456;2023-07-08T08:46:58;29.20;95.60
23637;DHT22;11995;50.842;4.456;2023-07-08T08:49:30;29.10;95.20
23637;DHT22;11995;50.842;4.456;2023-07-08T08:51:56;29.20;95.70
23637;DHT22;11995;50.842;4.456;2023-07-08T08:54:25;29.20;95.40
23637;DHT22;11995;50.842;4.456;2023-07-08T08:56:56;29.30;95.30
23637;DHT22;11995;50.842;4.456;2023-07-08T09:02:01;29.50;95.40
23637;DHT22;11995;50.842;4.456;2023-07-08T09:04:32;29.50;95.30
23637;DHT22;11995;50.842;4.456;2023-07-08T09:07:00;29.60;94.90
23637;DHT22;11995;50.842;4.456;2023-07-08T09:12:00;29.50;95.50
23637;DHT22;11995;50.842;4.456;2023-07-08T09:14:27;29.70;94.90
23637;DHT22;11995;50.842;4.456;2023-07-08T09:19:40;29.60;93.70
23637;DHT22;11995;50.842;4.456;2023-07-08T09:24:41;30.10;93.20
23637;DHT22;11995;50.842;4.456;2023-07-08T09:27:05;30.10;93.10
23637;DHT22;11995;50.842;4.456;2023-07-08T09:29:32;30.10;92.30
23637;DHT22;11995;50.842;4.456;2023-07-08T09:32:01;30.00;92.50
23637;DHT22;11995;50.842;4.456;2023-07-08T09:34:39;30.10;93.20
23637;DHT22;11995;50.842;4.456;2023-07-08T09:37:13;30.00;92.70
23637;DHT22;11995;50.842;4.456;2023-07-08T09:39:35;30.00;91.00
23637;DHT22;11995;50.842;4.456;2023-07-08T09:42:06;30.30;90.80
23637;DHT22;11995;50.842;4.456;2023-07-08T09:44:30;30.20;90.30
23637;DHT22;11995;50.842;4.456;2023-07-08T09:46:57;30.10;90.30
23637;DHT22;11995;50.842;4.456;2023-07-08T09:49:34;30.30;90.00
23637;DHT22;11995;50.842;4.456;2023-07-08T09:52:02;30.30;90.10
23637;DHT22;11995;50.842;4.456;2023-07-08T09:54:29;30.40;90.00
23637;DHT22;11995;50.842;4.456;2023-07-08T09:57:11;30.30;90.40
23637;DHT22;11995;50.842;4.456;2023-07-08T09:59:39;30.20;90.40
23637;DHT22;11995;50.842;4.456;2023-07-08T10:04:54;30.10;90.00
23637;DHT22;11995;50.842;4.456;2023-07-08T10:07:20;29.90;90.70
23637;DHT22;11995;50.842;4.456;2023-07-08T10:09:50;30.10;89.60
23637;DHT22;11995;50.842;4.456;2023-07-08T10:12:19;30.10;90.10
23637;DHT22;11995;50.842;4.456;2023-07-08T10:14:55;30.30;90.70
23637;DHT22;11995;50.842;4.456;2023-07-08T10:17:21;30.40;90.50
23637;DHT22;11995;50.842;4.456;2023-07-08T10:19:48;30.40;90.40
23637;DHT22;11995;50.842;4.456;2023-07-08T10:22:23;30.30;90.30
23637;DHT22;11995;50.842;4.456;2023-07-08T10:25:00;30.30;89.40
23637;DHT22;11995;50.842;4.456;2023-07-08T10:40:28;31.10;90.50
23637;DHT22;11995;50.842;4.456;2023-07-08T10:42:55;30.90;90.20
23637;DHT22;11995;50.842;4.456;2023-07-08T10:45:34;31.00;90.70
23637;DHT22;11995;50.842;4.456;2023-07-08T10:51:11;31.00;87.20
23637;DHT22;11995;50.842;4.456;2023-07-08T10:55:59;31.20;85.50
23637;DHT22;11995;50.842;4.456;2023-07-08T10:58:35;31.40;85.20
23637;DHT22;11995;50.842;4.456;2023-07-08T11:08:49;30.70;88.90
23637;DHT22;11995;50.842;4.456;2023-07-08T11:13:54;30.90;89.40
23637;DHT22;11995;50.842;4.456;2023-07-08T11:16:22;30.60;90.10
23637;DHT22;11995;50.842;4.456;2023-07-08T11:21:35;30.70;90.90
23637;DHT22;11995;50.842;4.456;2023-07-08T11:24:06;30.60;90.40
23637;DHT22;11995;50.842;4.456;2023-07-08T11:26:34;31.00;90.50
23637;DHT22;11995;50.842;4.456;2023-07-08T11:29:01;31.20;90.20
23637;DHT22;11995;50.842;4.456;2023-07-08T11:31:30;30.90;90.20
23637;DHT22;11995;50.842;4.456;2023-07-08T11:33:58;30.90;90.70
23637;DHT22;11995;50.842;4.456;2023-07-08T11:36:25;30.80;90.30
23637;DHT22;11995;50.842;4.456;2023-07-08T11:38:54;30.70;91.00
23637;DHT22;11995;50.842;4.456;2023-07-08T11:41:22;30.90;90.80
23637;DHT22;11995;50.842;4.456;2023-07-08T11:43:56;30.80;91.50
23637;DHT22;11995;50.842;4.456;2023-07-08T11:46:19;30.80;91.10
23637;DHT22;11995;50.842;4.456;2023-07-08T11:48:50;30.90;91.70
23637;DHT22;11995;50.842;4.456;2023-07-08T11:51:19;30.90;91.30
23637;DHT22;11995;50.842;4.456;2023-07-08T11:53:51;31.00;90.60
23637;DHT22;11995;50.842;4.456;2023-07-08T11:56:20;31.00;90.70
23637;DHT22;11995;50.842;4.456;2023-07-08T12:03:48;31.60;90.50
23637;DHT22;11995;50.842;4.456;2023-07-08T12:08:57;31.20;91.30
23637;DHT22;11995;50.842;4.456;2023-07-08T12:11:33;31.20;90.70
23637;DHT22;11995;50.842;4.456;2023-07-08T12:13:55;31.50;91.00
23637;DHT22;11995;50.842;4.456;2023-07-08T12:16:22;31.40;91.10
23637;DHT22;11995;50.842;4.456;2023-07-08T12:18:49;31.50;91.00
23637;DHT22;11995;50.842;4.456;2023-07-08T12:21:16;31.80;89.70
23637;DHT22;11995;50.842;4.456;2023-07-08T12:23:46;32.10;90.40
23637;DHT22;11995;50.842;4.456;2023-07-08T12:26:13;31.80;90.10
23637;DHT22;11995;50.842;4.456;2023-07-08T12:28:41;31.50;90.50
23637;DHT22;11995;50.842;4.456;2023-07-08T12:31:10;31.40;90.60
23637;DHT22;11995;50.842;4.456;2023-07-08T12:33:37;31.60;90.70
23637;DHT22;11995;50.842;4.456;2023-07-08T12:36:05;31.70;90.10
23637;DHT22;11995;50.842;4.456;2023-07-08T12:38:33;31.50;90.60
23637;DHT22;11995;50.842;4.456;2023-07-08T12:41:08;31.50;90.50
23637;DHT22;11995;50.842;4.456;2023-07-08T12:43:31;31.80;90.40
23637;DHT22;11995;50.842;4.456;2023-07-08T12:45:58;31.70;91.00
23637;DHT22;11995;50.842;4.456;2023-07-08T12:48:25;31.70;91.30
23637;DHT22;11995;50.842;4.456;2023-07-08T12:50:51;31.50;91.50
23637;DHT22;11995;50.842;4.456;2023-07-08T12:53:18;31.00;93.20
23637;DHT22;11995;50.842;4.456;2023-07-08T12:55:45;30.30;94.70
23637;DHT22;11995;50.842;4.456;2023-07-08T12:58:14;29.80;96.20
23637;DHT22;11995;50.842;4.456;2023-07-08T13:00:41;29.10;99.90
23637;DHT22;11995;50.842;4.456;2023-07-08T13:03:18;28.70;99.90
23637;DHT22;11995;50.842;4.456;2023-07-08T13:05:47;27.80;99.90
23637;DHT22;11995;50.842;4.456;2023-07-08T13:08:18;26.90;99.90
23637;DHT22;11995;50.842;4.456;2023-07-08T13:10:44;26.40;99.90
23637;DHT22;11995;50.842;4.456;2023-07-08T13:13:12;26.20;99.90
23637;DHT22;11995;50.842;4.456;2023-07-08T13:15:40;25.40;99.90
23637;DHT22;11995;50.842;4.456;2023-07-08T13:18:11;25.00;99.90
23637;DHT22;11995;50.842;4.456;2023-07-08T13:20:36;24.70;99.90
23637;DHT22;11995;50.842;4.456;2023-07-08T13:23:03;24.20;99.90
23637;DHT22;11995;50.842;4.456;2023-07-08T13:25:30;23.90;99.90
23637;DHT22;11995;50.842;4.456;2023-07-08T13:28:02;24.00;99.90
23637;DHT22;11995;50.842;4.456;2023-07-08T13:30:30;24.50;99.90
23637;DHT22;11995;50.842;4.456;2023-07-08T13:32:58;24.30;99.90
23637;DHT22;11995;50.842;4.456;2023-07-08T13:35:33;24.30;99.90
23637;DHT22;11995;50.842;4.456;2023-07-08T13:37:56;24.30;99.90
23637;DHT22;11995;50.842;4.456;2023-07-08T13:40:26;24.20;99.90
23637;DHT22;11995;50.842;4.456;2023-07-08T13:42:51;24.40;99.90
23637;DHT22;11995;50.842;4.456;2023-07-08T13:45:27;24.70;99.90
23637;DHT22;11995;50.842;4.456;2023-07-08T13:48:03;24.80;99.90
23637;DHT22;11995;50.842;4.456;2023-07-08T13:50:33;25.00;99.90
23637;DHT22;11995;50.842;4.456;2023-07-08T13:52:58;25.20;99.90
23637;DHT22;11995;50.842;4.456;2023-07-08T13:55:25;25.20;99.90
23637;DHT22;11995;50.842;4.456;2023-07-08T13:58:00;24.90;99.90
23637;DHT22;11995;50.842;4.456;2023-07-08T14:00:31;25.30;99.90
23637;DHT22;11995;50.842;4.456;2023-07-08T14:02:55;25.80;99.90
23637;DHT22;11995;50.842;4.456;2023-07-08T14:05:23;26.10;99.90
23637;DHT22;11995;50.842;4.456;2023-07-08T14:07:49;26.60;99.90
23637;DHT22;11995;50.842;4.456;2023-07-08T14:10:16;27.00;99.90
23637;DHT22;11995;50.842;4.456;2023-07-08T14:12:43;27.20;99.90
23637;DHT22;11995;50.842;4.456;2023-07-08T14:15:11;27.50;99.90
23637;DHT22;11995;50.842;4.456;2023-07-08T14:17:38;27.80;99.90
23637;DHT22;11995;50.842;4.456;2023-07-08T14:20:12;27.90;99.90
23637;DHT22;11995;50.842;4.456;2023-07-08T14:22:40;28.10;99.90
23637;DHT22;11995;50.842;4.456;2023-07-08T14:25:07;28.30;99.90
23637;DHT22;11995;50.842;4.456;2023-07-08T14:27:35;28.10;99.90
23637;DHT22;11995;50.842;4.456;2023-07-08T14:30:01;27.80;99.90
23637;DHT22;11995;50.842;4.456;2023-07-08T14:32:29;27.70;99.90
23637;DHT22;11995;50.842;4.456;2023-07-08T14:35:00;27.70;99.90
23637;DHT22;11995;50.842;4.456;2023-07-08T14:37:29;27.80;99.90
23637;DHT22;11995;50.842;4.456;2023-07-08T14:39:56;27.80;99.90
23637;DHT22;11995;50.842;4.456;2023-07-08T14:42:22;27.80;99.90
23637;DHT22;11995;50.842;4.456;2023-07-08T14:44:49;27.90;99.90
23637;DHT22;11995;50.842;4.456;2023-07-08T14:47:18;28.00;99.90
23637;DHT22;11995;50.842;4.456;2023-07-08T14:49:46;28.00;99.90
23637;DHT22;11995;50.842;4.456;2023-07-08T14:52:13;28.10;99.90
23637;DHT22;11995;50.842;4.456;2023-07-08T14:54:40;28.20;99.90
23637;DHT22;11995;50.842;4.456;2023-07-08T14:57:07;28.50;99.90
23637;DHT22;11995;50.842;4.456;2023-07-08T14:59:34;28.50;99.90
23637;DHT22;11995;50.842;4.456;2023-07-08T15:02:02;28.70;99.90
23637;DHT22;11995;50.842;4.456;2023-07-08T15:04:30;28.80;99.90
23637;DHT22;11995;50.842;4.456;2023-07-08T15:06:57;28.80;99.90
23637;DHT22;11995;50.842;4.456;2023-07-08T15:09:25;28.80;99.90
23637;DHT22;11995;50.842;4.456;2023-07-08T15:11:52;28.70;99.90
23637;DHT22;11995;50.842;4.456;2023-07-08T15:14:22;28.80;99.90
23637;DHT22;11995;50.842;4.456;2023-07-08T15:16:51;28.90;99.90
23637;DHT22;11995;50.842;4.456;2023-07-08T15:19:18;28.80;99.90
23637;DHT22;11995;50.842;4.456;2023-07-08T15:21:45;28.80;99.90
23637;DHT22;11995;50.842;4.456;2023-07-08T15:24:14;28.80;99.90
23637;DHT22;11995;50.842;4.456;2023-07-08T15:26:42;28.90;99.90
23637;DHT22;11995;50.842;4.456;2023-07-08T15:29:14;29.20;99.90
23637;DHT22;11995;50.842;4.456;2023-07-08T15:31:41;29.30;99.90
23637;DHT22;11995;50.842;4.456;2023-07-08T15:34:17;29.30;99.90
23637;DHT22;11995;50.842;4.456;2023-07-08T15:36:40;29.40;99.90
23637;DHT22;11995;50.842;4.456;2023-07-08T15:39:07;29.20;99.90
23637;DHT22;11995;50.842;4.456;2023-07-08T15:41:34;29.30;99.90
23637;DHT22;11995;50.842;4.456;2023-07-08T15:44:01;29.10;99.90
23637;DHT22;11995;50.842;4.456;2023-07-08T15:46:32;29.10;99.90
23637;DHT22;11995;50.842;4.456;2023-07-08T15:48:57;29.10;99.90
23637;DHT22;11995;50.842;4.456;2023-07-08T15:51:23;29.20;99.90
23637;DHT22;11995;50.842;4.456;2023-07-08T15:53:50;29.40;99.90
23637;DHT22;11995;50.842;4.456;2023-07-08T15:56:18;29.50;99.90
23637;DHT22;11995;50.842;4.456;2023-07-08T15:58:46;29.70;99.90
23637;DHT22;11995;50.842;4.456;2023-07-08T16:01:18;29.60;99.90
23637;DHT22;11995;50.842;4.456;2023-07-08T16:03:41;29.60;99.90
23637;DHT22;11995;50.842;4.456;2023-07-08T16:06:08;29.60;99.90
23637;DHT22;11995;50.842;4.456;2023-07-08T16:08:35;29.50;99.90
23637;DHT22;11995;50.842;4.456;2023-07-08T16:11:03;29.40;99.90
23637;DHT22;11995;50.842;4.456;2023-07-08T16:13:31;29.50;99.90
23637;DHT22;11995;50.842;4.456;2023-07-08T16:15:59;29.80;99.90
23637;DHT22;11995;50.842;4.456;2023-07-08T16:18:26;29.70;99.90
23637;DHT22;11995;50.842;4.456;2023-07-08T16:20:52;29.60;99.90
23637;DHT22;11995;50.842;4.456;2023-07-08T16:23:19;29.70;99.90
23637;DHT22;11995;50.842;4.456;2023-07-08T16:25:50;29.90;99.90
23637;DHT22;11995;50.842;4.456;2023-07-08T16:28:29;30.00;99.90